Time;durP1;ratioP1;P1;durP2;ratioP2;P2;SDS_P1;SDS_P2;PMS_P1;PMS_P2;Temp;Humidity;BMP_temperature;BMP_pressure;BME280_temperature;BME280_humidity;BME280_pressure;Samples;Min_cycle;Max_cycle;Signal;HPM_P1;HPM_P2
2022/04/23 00:01:43;;;;;;;12.70;9.20;;;11.30;92.60;;;;;;10383563;28;20221;-69
2022/04/23 00:06:44;;;;;;;10.07;8.97;;;11.30;93.30;;;;;;10390730;28;20218;-69
2022/04/23 00:11:45;;;;;;;11.10;9.07;;;11.20;94.20;;;;;;10392215;28;20224;-69
2022/04/23 00:16:46;;;;;;;12.43;9.47;;;11.10;95.20;;;;;;10383211;28;20221;-70
2022/04/23 00:21:48;;;;;;;12.23;9.10;;;11.10;96.40;;;;;;10399989;28;20229;-68
2022/04/23 00:26:48;;;;;;;9.90;8.90;;;11.00;97.80;;;;;;10391022;28;20231;-70
2022/04/23 00:31:49;;;;;;;10.20;9.13;;;10.90;99.30;;;;;;10383390;28;20225;-68
2022/04/23 00:36:50;;;;;;;10.73;8.93;;;10.90;99.90;;;;;;10390961;28;20224;-68
2022/04/23 00:41:52;;;;;;;12.50;9.77;;;10.80;99.90;;;;;;10384442;28;20237;-69
2022/04/23 00:46:52;;;;;;;11.20;9.53;;;10.80;99.90;;;;;;10392563;28;20642;-67
2022/04/23 00:51:53;;;;;;;11.10;9.83;;;10.70;99.90;;;;;;10390018;28;20247;-69
2022/04/23 00:56:54;;;;;;;10.53;9.43;;;10.70;99.90;;;;;;10382170;28;20990;-69
2022/04/23 01:01:55;;;;;;;12.30;10.23;;;10.70;99.90;;;;;;10385298;28;20232;-68
2022/04/23 01:06:55;;;;;;;13.93;10.17;;;10.70;99.90;;;;;;10389396;28;20223;-69
2022/04/23 01:11:59;;;;;;;12.03;10.77;;;10.70;99.90;;;;;;10396927;28;20235;-69
2022/04/23 01:17:00;;;;;;;13.97;10.97;;;10.60;99.90;;;;;;10402054;28;20221;-69
2022/04/23 01:22:02;;;;;;;17.43;11.43;;;10.60;99.90;;;;;;10391788;28;20209;-69
2022/04/23 01:27:04;;;;;;;13.23;10.87;;;10.60;99.90;;;;;;10393323;28;20217;-69
2022/04/23 01:32:06;;;;;;;14.10;12.40;;;10.60;99.90;;;;;;10398399;28;20201;-69
2022/04/23 01:37:08;;;;;;;17.50;12.33;;;10.60;99.90;;;;;;10402048;28;20221;-69
2022/04/23 01:42:09;;;;;;;14.07;11.97;;;10.60;99.90;;;;;;10394371;28;20271;-68
2022/04/23 01:47:09;;;;;;;14.60;12.07;;;10.70;99.90;;;;;;10395486;28;20692;-69
2022/04/23 01:52:11;;;;;;;14.93;12.00;;;10.60;99.90;;;;;;10392407;28;20216;-69
2022/04/23 01:57:11;;;;;;;13.43;11.67;;;10.60;99.90;;;;;;10392084;28;20750;-68
2022/04/23 02:02:12;;;;;;;16.67;12.20;;;10.60;99.90;;;;;;10393780;28;20212;-70
2022/04/23 02:07:13;;;;;;;13.47;12.13;;;10.60;99.90;;;;;;10392874;28;20287;-69
2022/04/23 02:12:13;;;;;;;12.87;11.43;;;10.60;99.90;;;;;;10407720;28;20213;-69
2022/04/23 02:17:14;;;;;;;13.63;11.53;;;10.60;99.90;;;;;;10396949;28;20254;-69
2022/04/23 02:22:15;;;;;;;13.27;11.53;;;10.70;99.90;;;;;;10398491;28;20213;-69
2022/04/23 02:27:15;;;;;;;16.13;11.90;;;10.70;99.90;;;;;;10397547;28;20277;-69
2022/04/23 02:32:16;;;;;;;15.30;11.30;;;10.80;99.90;;;;;;10391270;28;20213;-70
2022/04/23 02:37:20;;;;;;;12.43;11.17;;;10.70;99.90;;;;;;10391277;28;20240;-69
2022/04/23 02:42:24;;;;;;;16.40;11.83;;;10.70;99.90;;;;;;10390849;28;20296;-69
2022/04/23 02:47:24;;;;;;;14.07;12.23;;;10.70;99.90;;;;;;10396099;28;20348;-69
2022/04/23 02:52:25;;;;;;;16.47;11.33;;;10.60;99.90;;;;;;10387169;28;20248;-68
2022/04/23 02:57:26;;;;;;;13.47;12.03;;;10.60;99.90;;;;;;10396309;28;20231;-68
2022/04/23 03:02:28;;;;;;;13.97;11.60;;;10.50;99.90;;;;;;10391769;28;20267;-69
2022/04/23 03:07:30;;;;;;;12.90;10.83;;;10.50;99.90;;;;;;10386879;28;20216;-69
2022/04/23 03:12:31;;;;;;;13.13;11.83;;;10.50;99.90;;;;;;10394560;28;20216;-69
2022/04/23 03:17:32;;;;;;;13.27;11.97;;;10.40;99.90;;;;;;10379207;28;20225;-68
2022/04/23 03:22:32;;;;;;;14.13;11.83;;;10.40;99.90;;;;;;10392594;28;20296;-69
2022/04/23 03:27:33;;;;;;;16.27;12.83;;;10.30;99.90;;;;;;10391698;28;20224;-68
2022/04/23 03:32:34;;;;;;;15.23;12.37;;;10.30;99.90;;;;;;10387550;28;20228;-68
2022/04/23 03:37:42;;;;;;;16.70;12.50;;;10.30;99.90;;;;;;10392322;28;20224;-67
2022/04/23 03:42:45;;;;;;;16.90;13.00;;;10.30;99.90;;;;;;10386332;28;20214;-69
2022/04/23 03:47:46;;;;;;;15.63;12.83;;;10.20;99.90;;;;;;10392149;28;20228;-69
2022/04/23 03:52:48;;;;;;;17.70;13.37;;;10.30;99.90;;;;;;10385415;28;20255;-68
2022/04/23 03:57:50;;;;;;;15.87;12.50;;;10.30;99.90;;;;;;10392449;28;20247;-68
2022/04/23 04:02:54;;;;;;;15.47;12.10;;;10.20;99.90;;;;;;10392632;28;20223;-69
2022/04/23 04:07:55;;;;;;;15.97;12.43;;;10.20;99.90;;;;;;10392760;28;20229;-68
2022/04/23 04:12:55;;;;;;;15.27;12.50;;;10.10;99.90;;;;;;10390797;28;20224;-69
2022/04/23 04:17:57;;;;;;;13.43;11.90;;;10.10;99.90;;;;;;10397317;28;20220;-68
2022/04/23 04:23:00;;;;;;;12.80;11.50;;;10.00;99.90;;;;;;10382800;28;20213;-68
2022/04/23 04:28:01;;;;;;;13.10;11.70;;;9.90;99.90;;;;;;10385540;28;20272;-68
2022/04/23 04:33:03;;;;;;;12.77;11.43;;;9.90;99.90;;;;;;10388790;28;20267;-69
2022/04/23 04:38:03;;;;;;;14.07;11.57;;;9.90;99.90;;;;;;10376937;28;20236;-68
2022/04/23 04:43:04;;;;;;;12.97;11.67;;;10.00;99.90;;;;;;10387548;28;20209;-68
2022/04/23 04:48:05;;;;;;;12.17;10.83;;;10.10;99.90;;;;;;10385786;28;20220;-69
2022/04/23 04:53:06;;;;;;;13.30;10.53;;;10.20;99.90;;;;;;10386888;28;20224;-68
2022/04/23 04:58:06;;;;;;;12.50;10.60;;;10.50;99.90;;;;;;10380175;28;20255;-68
2022/04/23 05:03:07;;;;;;;10.70;9.60;;;10.90;99.90;;;;;;10386415;28;20228;-69
2022/04/23 05:08:07;;;;;;;12.07;10.00;;;11.20;99.90;;;;;;10390912;28;20270;-67
2022/04/23 05:13:08;;;;;;;13.23;10.83;;;11.50;99.90;;;;;;10382649;28;20220;-68
2022/04/23 05:18:09;;;;;;;11.83;10.23;;;11.70;99.90;;;;;;10386591;28;20221;-68
2022/04/23 05:23:09;;;;;;;11.97;9.57;;;11.80;99.90;;;;;;10385659;28;20219;-67
2022/04/23 05:28:10;;;;;;;10.87;9.77;;;11.90;99.90;;;;;;10392432;28;20243;-68
2022/04/23 05:33:11;;;;;;;9.27;8.30;;;12.30;99.90;;;;;;10385689;28;20627;-67
2022/04/23 05:38:12;;;;;;;9.17;8.10;;;12.70;99.90;;;;;;10381997;28;20249;-69
2022/04/23 05:43:12;;;;;;;9.73;8.73;;;12.90;99.90;;;;;;10385938;28;20315;-69
2022/04/23 05:48:13;;;;;;;9.07;8.17;;;12.90;99.90;;;;;;10385424;28;20220;-68
2022/04/23 05:53:13;;;;;;;8.03;7.23;;;13.00;99.90;;;;;;10386042;28;20311;-69
2022/04/23 05:58:14;;;;;;;7.33;6.63;;;13.10;99.90;;;;;;10389236;28;20225;-68
2022/04/23 06:03:15;;;;;;;9.53;6.80;;;13.20;99.90;;;;;;10397186;28;20233;-70
2022/04/23 06:08:15;;;;;;;7.20;6.50;;;13.20;99.90;;;;;;10397189;28;20217;-68
2022/04/23 06:13:16;;;;;;;5.47;4.97;;;13.70;99.90;;;;;;10400688;28;20312;-68
2022/04/23 06:18:16;;;;;;;5.60;5.10;;;15.10;99.90;;;;;;10394835;28;20299;-69
2022/04/23 06:23:17;;;;;;;5.20;4.77;;;17.20;99.90;;;;;;10394775;28;20273;-69
2022/04/23 06:28:17;;;;;;;4.90;3.90;;;18.70;96.80;;;;;;10382071;28;20222;-68
2022/04/23 06:33:18;;;;;;;3.87;3.60;;;18.60;92.80;;;;;;10391619;28;20220;-69
2022/04/23 06:38:19;;;;;;;3.40;3.10;;;18.70;90.90;;;;;;10383524;28;20239;-70
2022/04/23 06:43:19;;;;;;;3.50;3.23;;;17.90;91.00;;;;;;10389544;28;20221;-69
2022/04/23 06:48:20;;;;;;;4.10;3.00;;;18.50;89.60;;;;;;10387433;28;20260;-69
2022/04/23 06:53:20;;;;;;;3.70;3.40;;;18.70;87.40;;;;;;10392627;28;20750;-69
2022/04/23 06:58:22;;;;;;;2.80;2.60;;;17.20;90.10;;;;;;10389686;28;20231;-69
2022/04/23 07:03:23;;;;;;;3.47;3.17;;;16.00;93.30;;;;;;10391849;28;20241;-68
2022/04/23 07:08:23;;;;;;;3.30;3.03;;;15.40;95.80;;;;;;10393114;28;20216;-69
2022/04/23 07:13:25;;;;;;;3.50;3.20;;;15.40;96.00;;;;;;10392906;28;20224;-68
2022/04/23 07:18:26;;;;;;;3.57;3.27;;;15.10;97.60;;;;;;10386203;28;20223;-68
2022/04/23 07:28:45;;;;;;;4.07;3.67;;;15.30;96.90;;;;;;10394685;28;20223;-69
2022/04/23 07:39:05;;;;;;;3.40;3.10;;;17.00;94.00;;;;;;10395608;28;20862;-69
2022/04/23 07:44:09;;;;;;;3.63;3.33;;;19.50;84.20;;;;;;10390698;28;20225;-69
2022/04/23 07:49:09;;;;;;;3.87;3.57;;;21.30;72.60;;;;;;10385561;28;20217;-69
2022/04/23 07:54:10;;;;;;;6.87;4.33;;;21.10;69.20;;;;;;10388688;28;20798;-70
2022/04/23 07:59:13;;;;;;;3.90;3.60;;;18.00;78.50;;;;;;10393375;28;20644;-69
2022/04/23 08:04:14;;;;;;;4.93;3.90;;;19.20;77.90;;;;;;10393273;28;20220;-69
2022/04/23 08:09:14;;;;;;;4.20;3.80;;;19.00;75.30;;;;;;10384385;28;20583;-69
2022/04/23 08:14:15;;;;;;;4.20;3.80;;;18.50;77.40;;;;;;10392255;28;20251;-68
2022/04/23 08:19:17;;;;;;;5.50;3.87;;;19.50;74.00;;;;;;10391238;28;20312;-69
2022/04/23 08:24:19;;;;;;;4.87;3.60;;;19.50;72.00;;;;;;10397939;28;20650;-69
2022/04/23 08:34:38;;;;;;;3.87;3.20;;;21.70;61.10;;;;;;10392303;28;20224;-69
2022/04/23 08:39:39;;;;;;;4.23;3.17;;;22.10;60.40;;;;;;10384654;28;20230;-69
2022/04/23 08:44:41;;;;;;;4.97;3.30;;;22.00;59.50;;;;;;10382424;28;20228;-70
2022/04/23 08:49:42;;;;;;;4.10;3.00;;;22.20;58.50;;;;;;10382867;28;20324;-69
2022/04/23 08:54:44;;;;;;;4.27;3.10;;;22.70;58.20;;;;;;10383354;28;20234;-68
2022/04/23 08:59:51;;;;;;;3.90;3.60;;;22.90;55.80;;;;;;10390698;28;20318;-68
2022/04/23 09:04:56;;;;;;;4.20;3.60;;;23.70;55.60;;;;;;10382553;28;20231;-68
2022/04/23 09:09:58;;;;;;;4.30;3.90;;;24.80;50.60;;;;;;10388685;28;20227;-69
2022/04/23 09:26:25;;;;;;;3.87;3.50;;;23.80;52.90;;;;;;10385130;28;20227;-68
2022/04/23 09:31:26;;;;;;;4.13;3.30;;;23.80;50.90;;;;;;10385934;28;20230;-68
2022/04/23 09:36:49;;;;;;;3.20;3.00;;;23.10;51.90;;;;;;10396643;28;20224;-68
2022/04/23 09:41:49;;;;;;;5.77;3.90;;;24.20;51.50;;;;;;10390044;28;20240;-68
2022/04/23 09:46:53;;;;;;;3.40;3.10;;;24.00;50.90;;;;;;10397598;28;20230;-69
2022/04/23 09:52:06;;;;;;;3.70;3.50;;;23.70;51.10;;;;;;10396909;28;20222;-69
2022/04/23 09:57:06;;;;;;;4.00;3.60;;;22.40;54.60;;;;;;10392713;28;20233;-68
2022/04/23 10:02:15;;;;;;;4.83;3.70;;;21.70;55.60;;;;;;10393875;28;20233;-70
2022/04/23 10:07:17;;;;;;;4.10;3.80;;;20.40;59.00;;;;;;10393879;28;20221;-68
2022/04/23 10:12:19;;;;;;;5.17;3.93;;;20.50;58.80;;;;;;10392575;28;20228;-68
2022/04/23 10:17:20;;;;;;;4.73;4.33;;;20.90;57.40;;;;;;10395495;28;20228;-68
2022/04/23 10:22:52;;;;;;;4.00;3.53;;;20.70;57.30;;;;;;10397132;28;20239;-69
2022/04/23 10:27:55;;;;;;;8.30;4.33;;;20.10;58.80;;;;;;10390258;28;20220;-69
2022/04/23 10:32:56;;;;;;;5.37;4.10;;;20.20;59.30;;;;;;10395545;28;20223;-68
2022/04/23 10:38:18;;;;;;;5.93;4.50;;;20.10;59.50;;;;;;10392829;28;20770;-69
2022/04/23 10:43:19;;;;;;;4.97;4.57;;;20.30;58.40;;;;;;10391918;28;20223;-68
2022/04/23 10:48:23;;;;;;;6.30;5.17;;;19.10;62.60;;;;;;10390244;28;20240;-68
2022/04/23 10:53:41;;;;;;;7.17;5.37;;;18.60;64.80;;;;;;10392827;28;20237;-69
2022/04/23 11:16:13;;;;;;;7.93;5.83;;;18.70;66.40;;;;;;10397194;28;20217;-69
2022/04/23 11:21:21;;;;;;;8.43;6.63;;;18.60;65.90;;;;;;10385798;28;20282;-68
2022/04/23 11:26:46;;;;;;;8.03;7.23;;;18.00;67.60;;;;;;10389965;28;20650;-69
2022/04/23 11:31:56;;;;;;;8.10;7.30;;;17.40;70.50;;;;;;10393763;28;20219;-68
2022/04/23 11:36:58;;;;;;;8.13;7.33;;;17.80;69.40;;;;;;10390776;28;20220;-69
2022/04/23 11:42:02;;;;;;;7.77;6.97;;;17.50;71.00;;;;;;10387022;28;20227;-68
2022/04/23 11:47:03;;;;;;;8.83;7.93;;;17.40;72.40;;;;;;10396573;28;20226;-69
2022/04/23 11:52:07;;;;;;;8.97;8.07;;;17.70;71.20;;;;;;10389894;28;20224;-68
2022/04/23 11:57:13;;;;;;;9.97;8.13;;;17.80;70.90;;;;;;10382580;28;20228;-68
2022/04/23 12:02:25;;;;;;;9.47;8.43;;;17.40;72.20;;;;;;10388366;28;20233;-68
2022/04/23 12:07:27;;;;;;;10.70;9.10;;;17.20;73.10;;;;;;10386821;28;20220;-68
2022/04/23 12:12:32;;;;;;;10.27;8.63;;;16.90;74.90;;;;;;10389363;28;20221;-69
2022/04/23 12:17:51;;;;;;;11.90;10.70;;;16.80;75.90;;;;;;10392959;28;20263;-69
2022/04/23 12:22:55;;;;;;;11.90;10.60;;;16.40;77.10;;;;;;10384034;28;20216;-69
2022/04/23 12:44:21;;;;;;;14.93;13.17;;;17.10;77.20;;;;;;10387623;28;20314;-68
2022/04/23 12:49:22;;;;;;;14.50;12.80;;;17.20;77.50;;;;;;10391500;28;20261;-68
2022/04/23 12:54:23;;;;;;;15.77;12.87;;;17.20;76.20;;;;;;10388449;28;20223;-68
2022/04/23 12:59:24;;;;;;;16.23;14.43;;;17.10;76.80;;;;;;10385471;28;20227;-69
2022/04/23 13:04:24;;;;;;;18.37;13.37;;;17.20;76.80;;;;;;10388675;28;20229;-69
2022/04/23 13:09:25;;;;;;;14.50;13.03;;;17.30;77.10;;;;;;10407772;28;20252;-68
2022/04/23 13:14:26;;;;;;;16.43;14.30;;;17.20;77.50;;;;;;10398693;28;20228;-68
2022/04/23 13:19:26;;;;;;;13.63;11.90;;;17.20;77.00;;;;;;10390511;28;20229;-69
2022/04/23 13:24:27;;;;;;;13.30;11.97;;;16.90;76.60;;;;;;10393706;28;20240;-69
2022/04/23 13:29:28;;;;;;;13.83;12.33;;;16.90;77.90;;;;;;10396440;28;20225;-68
2022/04/23 13:34:28;;;;;;;12.90;11.57;;;16.80;77.40;;;;;;10397369;28;20218;-68
2022/04/23 13:39:29;;;;;;;12.53;11.23;;;16.70;77.80;;;;;;10396628;28;20685;-69
2022/04/23 13:44:30;;;;;;;13.10;11.80;;;17.20;76.70;;;;;;10398196;28;20249;-68
2022/04/23 13:49:31;;;;;;;12.13;10.93;;;17.80;74.40;;;;;;10391909;28;20235;-67
2022/04/23 13:54:32;;;;;;;12.17;10.40;;;18.00;73.60;;;;;;10395471;28;20340;-68
2022/04/23 13:59:34;;;;;;;11.63;9.87;;;17.90;72.90;;;;;;10391110;28;20260;-69
2022/04/23 14:10:08;;;;;;;13.73;11.33;;;17.50;73.40;;;;;;10395488;28;20224;-68
2022/04/23 14:15:10;;;;;;;13.17;11.33;;;17.60;73.80;;;;;;10392607;28;20307;-69
2022/04/23 14:20:11;;;;;;;12.77;11.43;;;17.50;74.00;;;;;;10390723;28;20306;-69
2022/04/23 14:25:11;;;;;;;12.57;11.27;;;17.50;74.30;;;;;;10401152;28;20664;-68
2022/04/23 14:30:12;;;;;;;13.70;12.10;;;17.30;76.20;;;;;;10390843;28;20186;-68
2022/04/23 14:35:12;;;;;;;13.97;12.47;;;17.20;75.80;;;;;;10387214;28;20190;-69
2022/04/23 14:40:13;;;;;;;15.70;14.10;;;16.80;77.20;;;;;;10390198;28;20673;-68
2022/04/23 14:45:18;;;;;;;17.17;13.20;;;16.70;77.80;;;;;;10390291;28;20205;-68
2022/04/23 14:50:18;;;;;;;13.10;11.63;;;16.70;76.90;;;;;;10389291;28;20193;-68
2022/04/23 14:55:19;;;;;;;12.17;10.90;;;16.90;77.10;;;;;;10392204;28;20578;-68
2022/04/23 15:00:19;;;;;;;13.53;9.20;;;16.80;76.30;;;;;;10390428;28;20692;-68
2022/04/23 15:05:21;;;;;;;10.63;9.30;;;16.80;75.20;;;;;;10400351;28;20193;-69
2022/04/23 15:10:21;;;;;;;9.50;8.50;;;16.60;75.60;;;;;;10397490;28;20186;-69
2022/04/23 15:15:23;;;;;;;9.60;7.97;;;16.50;76.20;;;;;;10388129;28;20216;-68
2022/04/23 15:20:24;;;;;;;10.90;9.00;;;16.60;75.30;;;;;;10387986;28;20294;-68
2022/04/23 15:25:24;;;;;;;10.70;8.63;;;16.50;76.30;;;;;;10396760;28;20263;-68
2022/04/23 15:30:26;;;;;;;10.53;8.73;;;16.50;76.50;;;;;;10391190;28;20387;-69
2022/04/23 15:35:27;;;;;;;10.30;8.40;;;16.70;76.80;;;;;;10393722;28;20256;-69
2022/04/23 15:40:28;;;;;;;9.60;8.60;;;16.60;75.60;;;;;;10382794;28;20643;-68
2022/04/23 15:45:29;;;;;;;10.03;8.20;;;16.70;76.00;;;;;;10386471;28;20245;-68
2022/04/23 15:50:31;;;;;;;8.83;7.93;;;16.80;75.30;;;;;;10392493;28;20241;-68
2022/04/23 15:55:31;;;;;;;10.17;8.70;;;16.90;75.10;;;;;;10385234;28;20828;-68
2022/04/23 16:00:32;;;;;;;9.00;8.10;;;16.90;75.70;;;;;;10389982;28;20316;-68
2022/04/23 16:05:33;;;;;;;8.77;7.87;;;16.70;75.20;;;;;;10385912;28;20209;-69
2022/04/23 16:10:33;;;;;;;9.43;8.53;;;16.80;76.10;;;;;;10390918;28;20309;-68
2022/04/23 16:15:34;;;;;;;9.03;8.00;;;16.70;76.00;;;;;;10388107;28;20227;-67
2022/04/23 16:20:36;;;;;;;10.67;8.30;;;16.70;75.80;;;;;;10391549;28;20775;-68
2022/04/23 16:25:37;;;;;;;9.87;7.83;;;16.80;76.40;;;;;;10390554;28;20231;-68
2022/04/23 16:30:38;;;;;;;8.83;7.70;;;16.90;75.80;;;;;;10386443;28;20460;-68
2022/04/23 16:46:37;;;;;;;10.67;7.77;;;16.90;76.40;;;;;;10397932;28;20223;-68
2022/04/23 16:51:38;;;;;;;10.17;6.87;;;16.80;75.20;;;;;;10391048;28;20431;-68
2022/04/23 16:56:38;;;;;;;7.07;6.37;;;16.50;76.10;;;;;;10392145;28;20227;-69
2022/04/23 17:01:39;;;;;;;7.13;6.43;;;16.60;76.60;;;;;;10389192;28;20231;-68
2022/04/23 17:06:39;;;;;;;9.87;6.63;;;16.40;75.80;;;;;;10383448;28;20220;-68
2022/04/23 17:11:40;;;;;;;7.40;6.70;;;16.40;76.40;;;;;;10383650;28;20243;-69
2022/04/23 17:16:48;;;;;;;8.93;7.57;;;16.30;76.90;;;;;;10392264;28;20224;-69
2022/04/23 17:21:49;;;;;;;10.03;7.00;;;16.20;76.80;;;;;;10381772;28;20301;-68
2022/04/23 17:26:53;;;;;;;8.73;7.00;;;16.20;77.10;;;;;;10382317;28;20230;-68
2022/04/23 17:31:53;;;;;;;7.83;7.03;;;16.10;77.20;;;;;;10382972;28;20256;-68
2022/04/23 17:36:54;;;;;;;7.73;6.70;;;16.10;78.30;;;;;;10387790;28;20721;-68
2022/04/23 17:41:58;;;;;;;6.93;6.23;;;16.00;78.70;;;;;;10381007;28;20234;-69
2022/04/23 17:46:59;;;;;;;8.23;6.90;;;16.00;79.00;;;;;;10379537;28;20223;-68
2022/04/23 17:52:00;;;;;;;8.23;6.63;;;15.90;79.60;;;;;;10384837;28;20218;-69
2022/04/23 17:57:02;;;;;;;7.37;6.67;;;15.80;79.80;;;;;;10395068;28;20233;-68
2022/04/23 18:07:31;;;;;;;7.70;6.90;;;15.80;80.80;;;;;;10391604;28;20227;-68
2022/04/23 18:12:32;;;;;;;8.27;6.87;;;15.70;80.50;;;;;;10394353;28;20313;-68
2022/04/23 18:17:32;;;;;;;7.40;6.57;;;15.70;81.00;;;;;;10388577;28;20225;-70
2022/04/23 18:22:33;;;;;;;7.80;7.00;;;15.60;81.10;;;;;;10401132;28;20229;-68
2022/04/23 18:27:33;;;;;;;7.50;6.70;;;15.50;81.20;;;;;;10389755;28;20302;-68
2022/04/23 18:32:34;;;;;;;7.50;6.77;;;15.50;81.60;;;;;;10395944;28;20224;-68
2022/04/23 18:37:35;;;;;;;7.47;6.50;;;15.40;82.00;;;;;;10395464;28;20233;-69
2022/04/23 18:42:36;;;;;;;9.70;7.00;;;15.30;82.40;;;;;;10388248;28;20758;-68
2022/04/23 18:47:39;;;;;;;7.90;7.10;;;15.30;82.80;;;;;;10394643;28;20228;-68
2022/04/23 18:52:41;;;;;;;6.90;6.30;;;15.20;83.10;;;;;;10385733;28;20874;-68
2022/04/23 18:57:41;;;;;;;8.03;7.23;;;15.20;83.70;;;;;;10394582;28;20230;-69
2022/04/23 19:02:42;;;;;;;8.30;7.30;;;15.10;84.00;;;;;;10392716;28;20223;-69
2022/04/23 19:07:42;;;;;;;9.13;7.80;;;15.10;84.40;;;;;;10384718;28;20222;-69
2022/04/23 19:12:43;;;;;;;7.40;6.70;;;15.00;85.10;;;;;;10401494;28;20676;-68
2022/04/23 19:17:44;;;;;;;7.70;6.90;;;14.90;85.60;;;;;;10393630;28;20308;-69
2022/04/23 19:28:05;;;;;;;8.60;7.80;;;14.80;86.60;;;;;;10389319;28;20226;-68
2022/04/23 19:33:11;;;;;;;10.10;8.10;;;14.80;87.40;;;;;;10393995;28;20728;-68
2022/04/23 19:38:12;;;;;;;8.70;7.80;;;14.70;88.00;;;;;;10390059;28;20233;-68
2022/04/23 19:43:13;;;;;;;9.27;8.37;;;14.60;88.50;;;;;;10383696;28;20238;-69
2022/04/23 19:48:13;;;;;;;8.80;7.90;;;14.60;89.00;;;;;;10388058;28;20218;-68
2022/04/23 19:53:14;;;;;;;8.57;7.67;;;14.50;89.30;;;;;;10388475;28;20269;-68
2022/04/23 19:58:15;;;;;;;9.17;7.50;;;14.50;90.00;;;;;;10393011;28;20225;-68
2022/04/23 20:03:15;;;;;;;9.17;7.70;;;14.40;90.60;;;;;;10388838;28;20580;-68
2022/04/23 20:08:16;;;;;;;9.90;8.20;;;14.30;90.90;;;;;;10391415;28;20224;-68
2022/04/23 20:13:16;;;;;;;12.20;9.37;;;14.20;91.30;;;;;;10391756;28;20605;-69
2022/04/23 20:18:17;;;;;;;13.50;9.90;;;14.10;91.70;;;;;;10387390;28;20711;-68
2022/04/23 20:23:18;;;;;;;8.87;7.77;;;14.00;92.40;;;;;;10396318;28;20597;-68
2022/04/23 20:29:04;;;;;;;8.50;7.23;;;13.80;92.30;;;;;;10385417;28;20225;-68
2022/04/23 20:33:49;;;;;;;7.77;7.00;;;13.70;92.80;;;;;;10383778;28;20229;-69
2022/04/23 20:38:50;;;;;;;8.47;7.43;;;13.50;93.60;;;;;;10391754;28;20655;-69
2022/04/23 20:43:53;;;;;;;8.37;7.50;;;13.50;93.70;;;;;;10398230;28;20308;-69
2022/04/23 20:48:54;;;;;;;11.47;8.33;;;13.40;94.00;;;;;;10384431;28;20225;-69
2022/04/23 20:53:55;;;;;;;10.40;8.50;;;13.40;94.40;;;;;;10393095;28;20612;-69
2022/04/23 20:58:55;;;;;;;13.37;9.10;;;13.40;94.60;;;;;;10385127;28;20224;-69
2022/04/23 21:03:56;;;;;;;14.03;8.73;;;13.40;95.00;;;;;;10388765;28;20213;-69
2022/04/23 21:08:56;;;;;;;11.07;8.50;;;13.30;95.30;;;;;;10388661;28;20217;-69
2022/04/23 21:13:57;;;;;;;9.13;8.00;;;13.30;95.60;;;;;;10383751;28;20231;-68
2022/04/23 21:18:58;;;;;;;9.93;8.20;;;13.30;95.90;;;;;;10389159;28;20216;-68
2022/04/23 21:23:58;;;;;;;10.70;9.40;;;13.30;96.00;;;;;;10380930;28;20612;-68
2022/04/23 21:28:59;;;;;;;11.80;9.63;;;13.30;96.20;;;;;;10392844;28;20308;-68
2022/04/23 21:33:59;;;;;;;12.00;9.23;;;13.30;96.30;;;;;;10396501;28;20665;-68
2022/04/23 21:39:00;;;;;;;12.53;9.23;;;13.30;96.50;;;;;;10391795;28;20264;-68
2022/04/23 21:49:20;;;;;;;12.50;9.63;;;13.20;97.00;;;;;;10393061;28;20217;-70
2022/04/23 21:54:20;;;;;;;10.03;8.20;;;13.10;97.30;;;;;;10392750;28;20228;-68
2022/04/23 21:59:21;;;;;;;10.60;8.83;;;13.00;97.60;;;;;;10392744;28;20233;-69
2022/04/23 22:04:22;;;;;;;10.80;9.23;;;12.90;98.00;;;;;;10397413;28;20742;-68
2022/04/23 22:09:24;;;;;;;9.33;8.33;;;12.90;98.30;;;;;;10392711;28;20270;-68
2022/04/23 22:14:25;;;;;;;9.03;8.13;;;12.80;98.70;;;;;;10390751;28;20252;-68
2022/04/23 22:19:25;;;;;;;9.57;7.20;;;12.80;98.90;;;;;;10394539;28;20248;-68
2022/04/23 22:24:26;;;;;;;8.53;7.33;;;12.70;99.30;;;;;;10391041;28;20225;-68
2022/04/23 22:29:30;;;;;;;8.97;8.07;;;12.70;99.60;;;;;;10399349;28;20671;-68
2022/04/23 22:34:30;;;;;;;10.93;7.87;;;12.60;99.90;;;;;;10387843;28;20221;-69
2022/04/23 22:39:31;;;;;;;7.53;6.83;;;12.60;99.90;;;;;;10393188;28;20232;-68
2022/04/23 22:44:33;;;;;;;9.77;7.80;;;12.50;99.90;;;;;;10394650;28;20217;-68
2022/04/23 22:49:34;;;;;;;8.00;7.20;;;12.40;99.90;;;;;;10387997;28;20209;-68
2022/04/23 22:54:34;;;;;;;8.40;6.70;;;12.40;99.90;;;;;;10386086;28;20228;-68
2022/04/23 22:59:36;;;;;;;8.23;6.97;;;12.30;99.90;;;;;;10400252;28;20220;-68
2022/04/23 23:04:36;;;;;;;8.33;7.30;;;12.30;99.90;;;;;;10394193;28;20220;-68
2022/04/23 23:09:37;;;;;;;8.37;7.23;;;12.20;99.90;;;;;;10394033;28;20287;-70
2022/04/23 23:14:39;;;;;;;9.33;7.37;;;12.20;99.90;;;;;;10393750;28;20225;-69
2022/04/23 23:19:39;;;;;;;10.87;8.13;;;12.10;99.90;;;;;;10394687;28;20229;-69
2022/04/23 23:24:40;;;;;;;8.83;7.93;;;12.00;99.90;;;;;;10384081;28;20217;-69
2022/04/23 23:29:40;;;;;;;9.93;8.17;;;11.90;99.90;;;;;;10392751;28;20640;-70
2022/04/23 23:34:41;;;;;;;9.47;8.53;;;11.90;99.90;;;;;;10400024;28;20216;-68
2022/04/23 23:39:41;;;;;;;9.97;8.97;;;11.80;99.90;;;;;;10383252;28;20232;-73
2022/04/23 23:44:42;;;;;;;9.53;8.53;;;11.80;99.90;;;;;;10392684;28;20240;-69
2022/04/23 23:49:46;;;;;;;9.73;8.67;;;11.70;99.90;;;;;;10384687;28;20217;-69
2022/04/23 23:54:47;;;;;;;9.10;8.20;;;11.60;99.90;;;;;;10382386;28;20225;-69
2022/04/23 23:59:48;;;;;;;9.17;8.27;;;11.60;99.90;;;;;;10392392;28;20221;-69
